Time;durP1;ratioP1;P1;durP2;ratioP2;P2;SDS_P1;SDS_P2;PMS_P1;PMS_P2;Temp;Humidity;BMP_temperature;BMP_pressure;BME280_temperature;BME280_humidity;BME280_pressure;Samples;Min_cycle;Max_cycle;Signal;HPM_P1;HPM_P2
2023/02/19 00:01:46;;;;;;;1.70;1.30;;;;;;;12.79;60.48;96047.16;5049337;28;20221;-82
2023/02/19 00:04:14;;;;;;;2.50;1.47;;;;;;;12.85;60.17;96050.81;5046827;28;20224;-82
2023/02/19 00:06:41;;;;;;;1.67;1.50;;;;;;;12.82;60.60;96046.00;5050704;28;20198;-82
2023/02/19 00:09:09;;;;;;;1.60;1.50;;;;;;;12.77;60.84;96043.94;5049901;28;20213;-82
2023/02/19 00:11:38;;;;;;;1.83;1.50;;;;;;;12.76;60.64;96045.72;5049204;28;20485;-82
2023/02/19 00:14:05;;;;;;;1.60;1.50;;;;;;;12.75;60.80;96038.97;5042948;28;20198;-82
2023/02/19 00:16:33;;;;;;;1.60;1.50;;;;;;;12.79;60.58;96049.75;5029895;28;20229;-83
2023/02/19 00:19:01;;;;;;;1.80;1.70;;;;;;;12.82;60.65;96036.47;5036152;28;20213;-82
2023/02/19 00:21:29;;;;;;;2.30;1.33;;;;;;;12.86;60.44;96031.75;5049960;28;20667;-82
2023/02/19 00:23:57;;;;;;;1.77;1.43;;;;;;;12.85;60.75;96033.53;5039650;28;20198;-82
2023/02/19 00:26:24;;;;;;;1.50;1.40;;;;;;;12.85;60.40;96027.56;5029923;28;20237;-81
2023/02/19 00:28:55;;;;;;;1.50;1.40;;;;;;;12.84;60.64;96019.00;5031494;28;20206;-82
2023/02/19 00:31:24;;;;;;;3.23;1.73;;;;;;;12.89;60.48;96026.22;5029399;28;20237;-82
2023/02/19 00:33:52;;;;;;;1.70;1.60;;;;;;;12.85;60.65;96025.78;5041940;28;20216;-82
2023/02/19 00:36:19;;;;;;;1.40;1.30;;;;;;;12.79;60.57;96022.13;5035747;28;20228;-82
2023/02/19 00:38:46;;;;;;;1.40;1.30;;;;;;;12.72;61.20;96020.41;5035611;28;20225;-82
2023/02/19 00:41:19;;;;;;;1.33;1.23;;;;;;;12.69;60.87;96023.38;5048398;28;20236;-82
2023/02/19 00:43:48;;;;;;;1.50;1.40;;;;;;;12.69;61.21;96023.38;5015198;28;20284;-82
2023/02/19 00:46:17;;;;;;;2.43;1.60;;;;;;;12.66;61.38;96014.22;5039626;28;20232;-82
2023/02/19 00:48:43;;;;;;;1.40;1.30;;;;;;;12.62;61.26;96017.31;5042970;28;20217;-82
2023/02/19 00:51:10;;;;;;;1.60;1.50;;;;;;;12.72;61.17;96015.25;5035450;28;20652;-82
2023/02/19 00:53:37;;;;;;;1.40;1.30;;;;;;;12.73;60.87;96012.50;5044642;28;20202;-82
2023/02/19 00:56:04;;;;;;;1.50;1.40;;;;;;;12.71;60.85;96014.44;5029488;28;20230;-82
2023/02/19 00:58:31;;;;;;;2.57;1.63;;;;;;;12.73;61.08;96004.75;5033421;28;20194;-82
2023/02/19 01:00:57;;;;;;;1.57;1.47;;;;;;;12.71;61.04;96001.53;5048929;28;20237;-82
2023/02/19 01:03:25;;;;;;;1.80;1.40;;;;;;;12.66;61.31;96000.50;5050615;28;20209;-82
2023/02/19 01:05:53;;;;;;;1.40;1.30;;;;;;;12.53;61.36;96010.63;5042635;28;20221;-82
2023/02/19 01:08:19;;;;;;;2.03;1.43;;;;;;;12.60;61.34;95998.59;5051244;28;20280;-82
2023/02/19 01:10:46;;;;;;;1.47;1.37;;;;;;;12.58;61.76;96003.16;5033126;28;20233;-82
2023/02/19 01:13:13;;;;;;;1.50;1.40;;;;;;;12.62;61.57;95997.47;5035684;28;20232;-82
2023/02/19 01:15:39;;;;;;;1.70;1.40;;;;;;;12.71;61.27;95993.78;5052953;28;20225;-82
2023/02/19 01:18:06;;;;;;;1.60;1.50;;;;;;;12.66;61.26;95988.38;5053254;28;20201;-82
2023/02/19 01:20:34;;;;;;;1.50;1.40;;;;;;;12.59;61.93;95982.31;5033857;28;20241;-82
2023/02/19 01:23:00;;;;;;;1.57;1.47;;;;;;;12.63;61.90;95987.94;5029665;28;20233;-82
2023/02/19 01:25:27;;;;;;;1.40;1.30;;;;;;;12.58;61.94;95979.91;5053152;28;20275;-82
2023/02/19 01:27:53;;;;;;;2.13;1.93;;;;;;;12.61;61.56;95988.09;5053502;28;20241;-82
2023/02/19 01:30:20;;;;;;;1.70;1.60;;;;;;;12.58;61.33;95979.91;5031771;28;20241;-82
2023/02/19 01:32:46;;;;;;;1.47;1.23;;;;;;;12.61;61.66;95988.09;5036395;28;20201;-82
2023/02/19 01:35:12;;;;;;;1.73;1.50;;;;;;;12.60;61.49;95980.53;5052776;28;20221;-82
2023/02/19 01:37:40;;;;;;;1.53;1.43;;;;;;;12.58;61.85;95975.53;5052760;28;20209;-82
2023/02/19 01:40:07;;;;;;;1.50;1.40;;;;;;;12.65;61.67;95989.34;5052609;28;20259;-81
2023/02/19 01:42:34;;;;;;;1.47;1.37;;;;;;;12.56;62.07;95974.91;5038983;28;20194;-81
2023/02/19 01:45:26;;;;;;;1.87;1.30;;;;;;;12.54;62.31;95973.47;5033047;28;20291;-82
2023/02/19 01:47:58;;;;;;;1.60;1.50;;;;;;;12.53;61.90;95971.88;5048907;28;20209;-81
2023/02/19 01:50:29;;;;;;;1.70;1.60;;;;;;;12.56;62.16;95974.91;5046452;28;20703;-82
2023/02/19 01:52:57;;;;;;;1.60;1.50;;;;;;;12.66;61.90;95967.72;5044765;28;20689;-83
2023/02/19 01:55:24;;;;;;;2.77;1.60;;;;;;;12.65;62.07;95960.94;5046987;28;20245;-81
2023/02/19 01:57:55;;;;;;;1.70;1.40;;;;;;;12.67;62.12;95956.41;5032820;28;20213;-82
2023/02/19 02:00:23;;;;;;;1.50;1.40;;;;;;;12.61;62.02;95959.69;5036343;28;20312;-82
2023/02/19 02:02:54;;;;;;;1.50;1.33;;;;;;;12.66;62.05;95962.53;5053249;28;20206;-82
2023/02/19 02:05:32;;;;;;;1.87;1.57;;;;;;;12.52;62.84;95963.34;5042437;28;20883;-83
2023/02/19 02:10:46;;;;;;;1.50;1.40;;;;;;;12.34;65.75;95968.84;5051549;28;20927;-83
2023/02/19 02:13:13;;;;;;;1.50;1.40;;;;;;;12.25;67.07;95959.59;5052752;28;20701;-83
2023/02/19 02:15:46;;;;;;;1.70;1.60;;;;;;;12.22;68.53;95954.00;5035387;28;20237;-83
2023/02/19 02:18:23;;;;;;;2.50;1.83;;;;;;;12.28;68.95;95961.84;5037665;28;20197;-83
2023/02/19 02:21:12;;;;;;;1.83;1.70;;;;;;;12.29;69.59;95965.22;5052642;28;20221;-83
2023/02/19 02:24:00;;;;;;;2.00;1.90;;;;;;;12.14;71.56;95956.63;5051480;28;20210;-83
2023/02/19 02:26:42;;;;;;;1.80;1.70;;;;;;;12.13;72.89;95957.63;5052269;28;20229;-83
2023/02/19 02:29:31;;;;;;;2.00;1.57;;;;;;;11.95;73.36;95942.47;5040110;28;20237;-83
2023/02/19 02:32:06;;;;;;;1.80;1.70;;;;;;;11.88;74.12;95944.16;5029661;28;20237;-83
2023/02/19 02:34:41;;;;;;;1.90;1.80;;;;;;;11.87;74.20;95935.63;5051544;28;20882;-83
2023/02/19 02:37:09;;;;;;;1.83;1.73;;;;;;;11.87;74.64;95939.97;5031427;28;20963;-82
2023/02/19 02:39:37;;;;;;;2.00;1.80;;;;;;;11.80;74.81;95939.06;5031963;28;20241;-83
2023/02/19 02:47:43;;;;;;;1.93;1.70;;;;;;;11.61;78.91;95945.47;5008594;28;20240;-83
2023/02/19 02:50:14;;;;;;;2.10;1.90;;;;;;;11.53;79.87;95930.09;5027987;28;20237;-83
2023/02/19 02:55:33;;;;;;;1.73;1.63;;;;;;;11.45;81.46;95922.41;5027177;28;20221;-83
2023/02/19 02:58:00;;;;;;;1.80;1.70;;;;;;;11.23;84.05;95921.44;5057665;28;20641;-83
2023/02/19 03:02:09;;;;;;;2.20;2.00;;;;;;;11.20;84.36;95916.63;5037401;28;20253;-83
2023/02/19 03:03:19;;;;;;;2.00;1.80;;;;;;;11.08;85.25;95904.16;5031072;28;20198;-83
2023/02/19 03:05:51;;;;;;;1.80;1.70;;;;;;;10.97;86.16;95911.47;5039683;28;20316;-83
2023/02/19 03:08:24;;;;;;;1.90;1.80;;;;;;;11.04;87.15;95900.31;5052059;28;20205;-83
2023/02/19 03:10:54;;;;;;;2.33;1.80;;;;;;;11.11;85.57;95909.94;5050819;28;20244;-83
2023/02/19 03:19:18;;;;;;;2.17;1.90;;;;;;;10.95;87.70;95908.28;5019984;28;20260;-83
2023/02/19 03:21:49;;;;;;;3.13;1.80;;;;;;;10.85;87.98;95907.69;5031398;28;20214;-83
2023/02/19 03:27:06;;;;;;;2.43;2.10;;;;;;;10.78;88.16;95912.69;5032130;28;20197;-83
2023/02/19 03:29:37;;;;;;;2.37;1.93;;;;;;;10.78;88.45;95911.91;5044282;28;20312;-83
2023/02/19 03:32:08;;;;;;;2.57;2.10;;;;;;;10.68;89.28;95906.97;5052037;28;20229;-83
2023/02/19 03:34:41;;;;;;;2.27;2.00;;;;;;;10.77;88.74;95905.97;5035381;28;20233;-83
2023/02/19 03:37:12;;;;;;;3.00;2.00;;;;;;;10.81;89.12;95907.22;5031889;28;20198;-83
2023/02/19 03:39:44;;;;;;;2.20;1.90;;;;;;;10.66;89.56;95904.56;5045335;28;20446;-83
2023/02/19 03:42:19;;;;;;;2.50;2.10;;;;;;;10.77;89.81;95905.97;5048870;28;20245;-83
2023/02/19 03:44:53;;;;;;;1.90;1.80;;;;;;;10.75;89.59;95910.47;5050505;28;20225;-83
2023/02/19 03:47:24;;;;;;;2.67;2.00;;;;;;;10.70;91.48;95905.03;5036923;28;20348;-83
2023/02/19 03:49:59;;;;;;;2.53;1.80;;;;;;;10.75;90.72;95901.97;5031164;28;20229;-83
2023/02/19 03:52:36;;;;;;;1.93;1.73;;;;;;;10.63;90.78;95896.38;5034669;28;20229;-83
2023/02/19 03:55:06;;;;;;;2.13;1.97;;;;;;;10.54;90.48;95900.78;5043479;28;20225;-83
2023/02/19 03:57:38;;;;;;;3.43;2.00;;;;;;;10.51;91.96;95898.53;5050596;28;20849;-83
2023/02/19 04:00:11;;;;;;;2.00;1.90;;;;;;;10.42;91.17;95902.09;5049591;28;20226;-83
2023/02/19 04:02:43;;;;;;;2.07;1.80;;;;;;;10.29;91.55;95899.25;5030579;28;20261;-83
2023/02/19 04:05:16;;;;;;;2.47;2.00;;;;;;;10.33;93.19;95910.84;5032535;28;20229;-82
2023/02/19 04:07:46;;;;;;;1.70;1.60;;;;;;;10.26;93.22;95887.53;5056289;28;20735;-82
2023/02/19 04:10:13;;;;;;;2.33;2.00;;;;;;;10.34;93.52;95902.13;5049400;28;20463;-82
2023/02/19 04:12:44;;;;;;;2.07;1.67;;;;;;;10.26;92.72;95884.94;5031765;28;20206;-82
2023/02/19 04:15:14;;;;;;;2.73;2.30;;;;;;;10.30;92.66;95891.38;5030709;28;20222;-83
2023/02/19 04:17:46;;;;;;;2.77;2.00;;;;;;;10.29;92.24;95870.94;5035842;28;20249;-82
2023/02/19 04:20:16;;;;;;;3.17;1.80;;;;;;;10.23;92.68;95864.69;5044448;28;20237;-82
2023/02/19 04:22:43;;;;;;;1.97;1.87;;;;;;;10.09;93.64;95875.66;5050188;28;20209;-82
2023/02/19 04:25:10;;;;;;;2.07;1.83;;;;;;;10.15;93.53;95869.84;5043556;28;20229;-82
2023/02/19 04:27:37;;;;;;;2.00;1.80;;;;;;;10.01;92.28;95875.66;5049818;28;20567;-82
2023/02/19 04:30:05;;;;;;;2.20;2.00;;;;;;;10.09;93.27;95892.88;5036849;28;20284;-82
2023/02/19 04:32:32;;;;;;;2.00;1.80;;;;;;;10.19;93.08;95881.47;5029528;28;20232;-82
2023/02/19 04:34:58;;;;;;;2.60;2.07;;;;;;;10.29;91.64;95886.38;5040097;28;20221;-82
2023/02/19 04:37:26;;;;;;;3.63;1.80;;;;;;;10.30;91.84;95875.13;5049080;28;20201;-82
2023/02/19 04:39:52;;;;;;;1.90;1.80;;;;;;;10.26;91.32;95897.81;5030121;28;20233;-82
2023/02/19 04:42:19;;;;;;;2.10;1.90;;;;;;;10.25;91.21;95897.97;5030362;28;20217;-83
2023/02/19 04:44:45;;;;;;;1.87;1.77;;;;;;;10.24;90.83;95907.47;5047152;28;20225;-82
2023/02/19 04:47:12;;;;;;;2.53;2.20;;;;;;;10.12;91.77;95902.81;5038631;28;20205;-82
2023/02/19 04:49:38;;;;;;;2.20;1.70;;;;;;;10.20;90.72;95898.47;5029632;28;20683;-83
2023/02/19 04:52:05;;;;;;;2.20;1.93;;;;;;;10.20;90.36;95898.47;5035371;28;20921;-83
2023/02/19 04:54:32;;;;;;;1.70;1.60;;;;;;;10.21;89.83;95912.94;5029527;28;20245;-82
2023/02/19 04:56:59;;;;;;;1.80;1.70;;;;;;;10.15;89.72;95900.72;5035897;28;20320;-82
2023/02/19 04:59:25;;;;;;;1.70;1.60;;;;;;;10.15;89.89;95893.00;5031862;28;20202;-82
2023/02/19 05:01:51;;;;;;;1.83;1.70;;;;;;;10.17;89.43;95921.16;5049600;28;20221;-83
2023/02/19 05:04:18;;;;;;;2.03;1.80;;;;;;;10.17;88.72;95906.53;5047771;28;20220;-83
2023/02/19 05:06:44;;;;;;;1.90;1.70;;;;;;;10.24;88.48;95910.03;5045436;28;20193;-83
2023/02/19 05:09:11;;;;;;;3.10;1.70;;;;;;;10.25;88.65;95896.22;5048843;28;20697;-83
2023/02/19 05:11:38;;;;;;;1.73;1.63;;;;;;;10.21;88.32;95907.78;5049516;28;20232;-83
2023/02/19 05:14:05;;;;;;;1.60;1.50;;;;;;;10.19;88.72;95904.63;5042654;28;20252;-82
2023/02/19 05:16:32;;;;;;;2.57;1.70;;;;;;;10.18;88.63;95909.91;5034406;28;20238;-83
2023/02/19 05:18:58;;;;;;;2.13;1.50;;;;;;;10.23;88.58;95900.72;5042257;28;20194;-83
2023/02/19 05:21:25;;;;;;;1.70;1.60;;;;;;;10.12;88.17;95900.25;5055274;28;20644;-82
2023/02/19 05:23:51;;;;;;;1.40;1.30;;;;;;;10.19;87.68;95912.34;5056474;28;20193;-83
2023/02/19 05:26:20;;;;;;;1.70;1.60;;;;;;;10.25;87.12;95916.78;5058296;28;20229;-83
2023/02/19 05:28:50;;;;;;;1.50;1.40;;;;;;;10.33;86.78;95921.13;5054031;28;20236;-83
2023/02/19 05:31:17;;;;;;;1.67;1.57;;;;;;;10.33;86.50;95909.06;5038275;28;20226;-82
2023/02/19 05:33:47;;;;;;;1.70;1.60;;;;;;;10.34;86.09;95920.16;5041783;28;20236;-83
2023/02/19 05:36:14;;;;;;;1.70;1.60;;;;;;;10.46;86.21;95918.00;5051212;28;20225;-83
2023/02/19 05:38:41;;;;;;;1.63;1.53;;;;;;;10.42;85.78;95914.97;5041928;28;20256;-82
2023/02/19 05:41:09;;;;;;;1.83;1.50;;;;;;;10.44;85.10;95932.81;5034407;28;20256;-83
2023/02/19 05:43:35;;;;;;;1.63;1.53;;;;;;;10.45;84.88;95922.34;5046100;28;20204;-82
2023/02/19 05:46:03;;;;;;;1.60;1.50;;;;;;;10.47;84.57;95920.41;5052875;28;20259;-83
2023/02/19 05:48:30;;;;;;;1.70;1.60;;;;;;;10.38;84.69;95939.44;5034067;28;20214;-83
2023/02/19 05:51:01;;;;;;;1.80;1.70;;;;;;;10.47;84.58;95935.06;5030915;28;20287;-85
2023/02/19 05:53:28;;;;;;;1.60;1.50;;;;;;;10.57;83.92;95946.78;5053447;28;20197;-83
2023/02/19 05:55:54;;;;;;;2.83;1.60;;;;;;;10.59;83.36;95941.44;5042479;28;20238;-82
2023/02/19 05:58:20;;;;;;;1.70;1.53;;;;;;;10.68;82.95;95951.56;5055424;28;20193;-82
2023/02/19 06:00:47;;;;;;;1.70;1.60;;;;;;;10.67;82.37;95949.16;5050125;28;20226;-82
2023/02/19 06:03:15;;;;;;;1.77;1.50;;;;;;;10.68;82.13;95943.03;5043551;28;20287;-83
2023/02/19 06:05:41;;;;;;;1.80;1.70;;;;;;;10.62;82.45;95939.34;5071925;28;20221;-82
2023/02/19 06:08:07;;;;;;;1.73;1.53;;;;;;;10.66;81.91;95945.75;5076425;28;20193;-83
2023/02/19 06:10:35;;;;;;;1.70;1.60;;;;;;;10.56;82.56;95954.69;5073407;28;20225;-82
2023/02/19 06:13:01;;;;;;;1.33;1.23;;;;;;;10.61;81.88;95936.94;5075724;28;20205;-82
2023/02/19 06:15:29;;;;;;;1.70;1.60;;;;;;;10.47;82.49;95945.34;5071987;28;20224;-83
2023/02/19 06:17:56;;;;;;;1.50;1.40;;;;;;;10.53;82.42;95944.69;5065992;28;20209;-83
2023/02/19 06:20:23;;;;;;;2.47;1.50;;;;;;;10.53;82.67;95948.09;5054788;28;20268;-82
2023/02/19 06:22:50;;;;;;;1.70;1.60;;;;;;;10.50;82.64;95950.19;5039372;28;20659;-82
2023/02/19 06:25:17;;;;;;;1.80;1.60;;;;;;;10.51;82.95;95954.38;5055730;28;20229;-82
2023/02/19 06:27:43;;;;;;;1.80;1.70;;;;;;;10.48;82.79;95965.78;5054132;28;20228;-83
2023/02/19 06:30:11;;;;;;;1.60;1.50;;;;;;;10.53;82.43;95957.56;5053886;28;20290;-82
2023/02/19 06:32:38;;;;;;;1.50;1.40;;;;;;;10.52;82.03;95969.66;5060716;28;20224;-82
2023/02/19 06:35:05;;;;;;;1.60;1.50;;;;;;;10.43;82.41;95962.09;5071579;28;20577;-82
2023/02/19 06:37:33;;;;;;;1.50;1.40;;;;;;;10.54;81.61;95978.00;5075637;28;20320;-83
2023/02/19 06:39:59;;;;;;;1.70;1.60;;;;;;;10.53;81.94;95970.44;5068278;28;21748;-82
2023/02/19 06:42:25;;;;;;;1.60;1.50;;;;;;;10.54;81.70;95974.63;5060154;28;20193;-81
2023/02/19 06:44:52;;;;;;;1.70;1.60;;;;;;;10.60;81.90;95986.81;5074702;28;20255;-83
2023/02/19 06:47:39;;;;;;;1.70;1.60;;;;;;;10.59;81.72;95980.06;5064882;28;20189;-83
2023/02/19 06:50:06;;;;;;;1.80;1.63;;;;;;;10.70;81.56;95985.66;5072265;28;20259;-82
2023/02/19 06:52:34;;;;;;;1.57;1.47;;;;;;;10.63;81.22;95989.06;5052431;28;20209;-82
2023/02/19 06:55:00;;;;;;;1.60;1.50;;;;;;;10.66;81.53;95991.31;5044320;28;20238;-82
2023/02/19 06:57:27;;;;;;;2.20;1.60;;;;;;;10.61;81.30;95989.22;5031010;28;20283;-82
2023/02/19 06:59:53;;;;;;;1.50;1.40;;;;;;;10.60;81.51;95991.97;5054947;28;20324;-82
2023/02/19 07:02:20;;;;;;;1.60;1.50;;;;;;;10.72;81.35;96000.97;5033625;28;20259;-82
2023/02/19 07:04:46;;;;;;;1.70;1.60;;;;;;;10.76;80.96;96012.53;5040259;28;20577;-83
2023/02/19 07:07:12;;;;;;;1.80;1.70;;;;;;;10.76;80.66;96012.53;5055053;28;20198;-82
2023/02/19 07:09:40;;;;;;;1.93;1.77;;;;;;;10.81;80.43;96019.75;5053876;28;20229;-82
2023/02/19 07:12:07;;;;;;;2.10;1.77;;;;;;;10.81;80.53;96019.75;5040958;28;20303;-82
2023/02/19 07:14:33;;;;;;;1.70;1.60;;;;;;;10.82;80.25;96023.94;5050366;28;20225;-83
2023/02/19 07:17:00;;;;;;;1.80;1.70;;;;;;;10.84;80.53;96027.13;5054392;28;20210;-82
2023/02/19 07:19:26;;;;;;;1.77;1.67;;;;;;;10.88;81.09;96033.56;5053827;28;20220;-82
2023/02/19 07:21:53;;;;;;;1.77;1.67;;;;;;;10.86;80.82;96036.31;5052332;28;20570;-82
2023/02/19 07:24:20;;;;;;;1.90;1.70;;;;;;;10.87;80.73;96039.69;5034030;28;20206;-83
2023/02/19 07:26:48;;;;;;;1.80;1.70;;;;;;;10.89;81.12;96033.41;5035054;28;20628;-81
2023/02/19 07:29:14;;;;;;;2.23;1.80;;;;;;;10.97;81.31;96037.69;5034959;28;20206;-83
2023/02/19 07:31:41;;;;;;;2.17;1.90;;;;;;;10.91;80.89;96046.13;5049895;28;20240;-83
2023/02/19 07:34:07;;;;;;;1.70;1.60;;;;;;;10.85;81.62;96046.78;5053714;28;20216;-82
2023/02/19 07:36:34;;;;;;;2.30;1.80;;;;;;;11.02;80.73;96056.84;5049581;28;20233;-83
2023/02/19 07:39:00;;;;;;;3.87;1.70;;;;;;;11.11;84.71;96049.91;5039739;28;20645;-83
2023/02/19 07:41:27;;;;;;;2.10;1.90;;;;;;;11.01;81.81;96051.88;5033644;28;20222;-82
2023/02/19 07:43:55;;;;;;;1.80;1.70;;;;;;;10.95;82.20;96053.34;5038540;28;20245;-82
2023/02/19 07:46:22;;;;;;;1.90;1.80;;;;;;;11.10;81.24;96062.94;5034307;28;20958;-82
2023/02/19 07:48:48;;;;;;;1.60;1.50;;;;;;;11.03;81.38;96060.22;5034278;28;20194;-82
2023/02/19 07:51:17;;;;;;;1.87;1.77;;;;;;;11.06;81.14;96065.06;5034243;28;20242;-82
2023/02/19 07:53:45;;;;;;;1.90;1.80;;;;;;;10.95;81.51;96075.75;5040156;28;20718;-82
2023/02/19 07:56:13;;;;;;;2.00;1.80;;;;;;;11.05;81.55;96081.50;5034396;28;20226;-82
2023/02/19 07:58:40;;;;;;;2.00;1.80;;;;;;;11.09;80.75;96080.19;5035089;28;20206;-82
2023/02/19 08:01:09;;;;;;;4.17;1.93;;;;;;;11.00;81.48;96087.13;5034112;28;20229;-82
2023/02/19 08:03:35;;;;;;;2.00;1.80;;;;;;;11.04;81.16;96085.03;5034607;28;20211;-82
2023/02/19 08:06:02;;;;;;;2.13;1.70;;;;;;;11.07;81.25;96093.25;5043929;28;20229;-82
2023/02/19 08:08:28;;;;;;;1.90;1.80;;;;;;;11.10;81.08;96094.69;5054156;28;20205;-83
2023/02/19 08:13:40;;;;;;;1.87;1.77;;;;;;;11.10;81.15;96097.25;5046787;28;20611;-82
2023/02/19 08:16:14;;;;;;;2.10;1.90;;;;;;;11.06;81.36;96094.22;5034602;28;20234;-82
2023/02/19 08:18:41;;;;;;;1.90;1.80;;;;;;;11.10;81.06;96105.00;5034248;28;20225;-82
2023/02/19 08:21:07;;;;;;;1.90;1.80;;;;;;;11.12;80.97;96110.78;5039629;28;20275;-82
2023/02/19 08:23:34;;;;;;;1.70;1.60;;;;;;;11.18;81.00;96104.94;5059234;28;20247;-83
2023/02/19 08:26:02;;;;;;;1.90;1.63;;;;;;;11.10;80.31;96109.34;5053244;28;20796;-82
2023/02/19 08:28:29;;;;;;;1.87;1.77;;;;;;;11.19;80.31;96121.22;5054500;28;20480;-82
2023/02/19 08:31:00;;;;;;;1.50;1.40;;;;;;;11.29;79.97;96112.31;5053194;28;20245;-82
2023/02/19 08:33:29;;;;;;;1.40;1.30;;;;;;;11.18;78.88;96117.81;5054220;28;20502;-82
2023/02/19 08:35:55;;;;;;;1.50;1.40;;;;;;;11.15;79.36;96128.50;5053862;28;20290;-83
2023/02/19 08:38:22;;;;;;;1.67;1.57;;;;;;;11.15;78.95;96123.34;5053355;28;20208;-83
2023/02/19 08:40:48;;;;;;;1.40;1.30;;;;;;;11.12;78.74;96126.25;5053173;28;20245;-82
2023/02/19 08:43:17;;;;;;;1.70;1.60;;;;;;;11.23;78.58;96132.81;5059097;28;20732;-83
2023/02/19 08:45:46;;;;;;;1.70;1.60;;;;;;;11.33;78.02;96133.41;5052841;28;20286;-82
2023/02/19 08:48:12;;;;;;;1.40;1.30;;;;;;;11.36;77.59;96133.06;5039499;28;20202;-82
2023/02/19 08:50:40;;;;;;;1.60;1.50;;;;;;;11.40;77.53;96139.50;5032471;28;20673;-82
2023/02/19 08:53:07;;;;;;;1.60;1.40;;;;;;;11.43;77.43;96139.97;5038356;28;20233;-82
2023/02/19 08:55:34;;;;;;;1.60;1.50;;;;;;;11.40;78.17;96145.47;5045291;28;20286;-82
2023/02/19 08:58:03;;;;;;;2.13;1.40;;;;;;;11.36;78.26;96149.34;5053602;28;20709;-82
2023/02/19 09:00:30;;;;;;;2.17;1.47;;;;;;;11.31;78.48;96161.13;5052431;28;20312;-82
2023/02/19 09:02:57;;;;;;;1.67;1.50;;;;;;;11.20;77.77;96143.44;5052053;28;20285;-83
2023/02/19 09:05:24;;;;;;;1.80;1.70;;;;;;;11.19;78.42;96163.25;5050690;28;20225;-82
2023/02/19 09:07:52;;;;;;;2.43;1.50;;;;;;;11.16;77.08;96158.44;5051376;28;20899;-83
2023/02/19 09:10:18;;;;;;;1.50;1.40;;;;;;;11.14;76.29;96157.00;5040452;28;20244;-83
2023/02/19 09:12:45;;;;;;;1.60;1.50;;;;;;;11.10;76.17;96179.72;5057113;28;20246;-83
2023/02/19 09:15:12;;;;;;;1.43;1.33;;;;;;;11.02;75.64;96177.16;5050858;28;20241;-83
2023/02/19 09:17:38;;;;;;;1.27;1.17;;;;;;;10.96;74.72;96162.38;5051694;28;20212;-83
2023/02/19 09:20:05;;;;;;;1.40;1.30;;;;;;;10.95;73.76;96179.59;5050756;28;20233;-82
2023/02/19 09:22:32;;;;;;;1.30;1.20;;;;;;;10.88;74.29;96180.41;5039119;28;20207;-83
2023/02/19 09:25:02;;;;;;;1.73;1.27;;;;;;;10.98;78.21;96175.88;5037493;28;20227;-86
2023/02/19 09:27:31;;;;;;;1.40;1.30;;;;;;;11.39;82.74;96172.22;5045546;28;20693;-86
2023/02/19 09:29:57;;;;;;;1.30;1.20;;;;;;;11.69;76.37;96175.81;5040512;28;20308;-85
2023/02/19 09:32:25;;;;;;;2.33;1.50;;;;;;;11.96;75.94;96177.13;5070805;28;20221;-86
2023/02/19 09:34:52;;;;;;;1.53;1.43;;;;;;;12.20;77.95;96165.84;5067827;28;20243;-86
2023/02/19 09:37:18;;;;;;;1.77;1.10;;;;;;;12.12;72.13;96172.88;5050949;28;20212;-84
2023/02/19 09:39:45;;;;;;;0.77;0.70;;;;;;;11.94;67.91;96189.41;5052802;28;20236;-84
2023/02/19 09:42:18;;;;;;;0.60;0.60;;;;;;;11.61;66.95;96193.09;5053618;28;20221;-84
2023/02/19 09:44:47;;;;;;;0.63;0.60;;;;;;;11.40;66.56;96197.03;5072688;28;20889;-84
2023/02/19 09:47:17;;;;;;;0.50;0.50;;;;;;;11.25;66.87;96205.63;5069031;28;20658;-83
2023/02/19 09:49:50;;;;;;;0.50;0.50;;;;;;;11.07;67.23;96201.47;5054436;28;20801;-83
2023/02/19 09:52:23;;;;;;;0.60;0.60;;;;;;;11.02;67.85;96192.63;5054272;28;20243;-82
2023/02/19 09:54:56;;;;;;;0.60;0.60;;;;;;;10.96;67.40;96193.28;5047977;28;20280;-86
2023/02/19 09:57:26;;;;;;;1.87;0.60;;;;;;;10.94;66.22;96183.16;5014913;28;20234;-86
2023/02/19 09:59:59;;;;;;;0.53;0.53;;;;;;;10.98;66.49;96204.22;5020026;28;20254;-85
2023/02/19 10:02:29;;;;;;;0.97;0.63;;;;;;;10.97;65.77;96197.44;5030712;28;20236;-83
2023/02/19 10:04:57;;;;;;;0.70;0.70;;;;;;;11.10;65.48;96207.28;5047323;28;20225;-83
2023/02/19 10:07:26;;;;;;;0.60;0.60;;;;;;;11.10;65.31;96196.97;5065157;28;20252;-81
2023/02/19 10:09:56;;;;;;;1.27;0.87;;;;;;;11.54;64.10;96194.75;5050246;28;20591;-82
2023/02/19 10:12:27;;;;;;;0.93;0.60;;;;;;;12.11;62.31;96177.22;5050162;28;20225;-83
2023/02/19 10:15:00;;;;;;;0.70;0.70;;;;;;;12.81;60.50;96187.34;5044340;28;20226;-84
2023/02/19 10:17:30;;;;;;;0.60;0.60;;;;;;;13.13;60.00;96176.66;5058961;28;20236;-82
2023/02/19 10:19:57;;;;;;;1.83;0.73;;;;;;;13.47;56.29;96194.25;5046880;28;20287;-82
2023/02/19 10:22:24;;;;;;;0.70;0.70;;;;;;;13.39;54.12;96178.84;5054311;28;20197;-83
2023/02/19 10:24:54;;;;;;;0.60;0.60;;;;;;;13.55;55.82;96190.00;5059775;28;20252;-82
2023/02/19 10:27:21;;;;;;;2.17;0.70;;;;;;;13.79;53.60;96206.03;5041329;28;20198;-84
2023/02/19 10:29:51;;;;;;;0.70;0.70;;;;;;;13.95;52.23;96202.44;5029189;28;20237;-85
2023/02/19 10:32:22;;;;;;;1.23;0.90;;;;;;;13.78;52.03;96203.63;5044786;28;20218;-83
2023/02/19 10:35:06;;;;;;;0.83;0.70;;;;;;;13.97;52.05;96194.47;5063604;28;20225;-82
2023/02/19 10:37:33;;;;;;;0.70;0.68;;;;;;;14.30;51.17;96200.00;5044595;28;20198;-83
2023/02/19 10:40:01;;;;;;;1.13;0.70;;;;;;;14.36;51.15;96207.03;5044985;28;20217;-83
2023/02/19 10:42:27;;;;;;;0.75;0.75;;;;;;;14.13;51.78;96178.72;5052981;28;20190;-83
2023/02/19 10:45:07;;;;;;;0.65;0.65;;;;;;;14.32;51.80;96198.84;5046903;28;20217;-83
2023/02/19 10:47:34;;;;;;;3.42;3.10;;;;;;;14.63;50.92;96190.75;5037078;28;20278;-82
2023/02/19 10:50:01;;;;;;;0.95;0.95;;;;;;;14.65;49.46;96201.75;5049313;28;20221;-83
2023/02/19 10:52:30;;;;;;;0.50;0.50;;;;;;;14.61;49.96;96182.41;5033733;28;20218;-83
2023/02/19 10:55:13;;;;;;;0.40;0.40;;;;;;;14.54;50.07;96188.50;5035621;28;20253;-83
2023/02/19 10:57:40;;;;;;;0.52;0.52;;;;;;;14.59;49.44;96173.22;5030401;28;20749;-83
2023/02/19 11:00:23;;;;;;;0.50;0.50;;;;;;;14.51;49.30;96174.94;5039756;28;20257;-83
2023/02/19 11:02:49;;;;;;;0.50;0.50;;;;;;;14.59;48.67;96173.22;5052325;28;20225;-83
2023/02/19 11:05:33;;;;;;;0.65;0.65;;;;;;;14.43;49.22;96179.44;5029110;28;20229;-83
2023/02/19 11:08:00;;;;;;;0.50;0.50;;;;;;;14.03;49.83;96186.78;5046216;28;20205;-83
2023/02/19 11:10:29;;;;;;;0.50;0.50;;;;;;;13.72;50.28;96168.91;5048134;28;20783;-83
2023/02/19 11:13:07;;;;;;;0.50;0.50;;;;;;;13.61;50.90;96169.38;5056914;28;20228;-83
2023/02/19 11:15:37;;;;;;;0.50;0.50;;;;;;;13.50;51.39;96162.06;5031736;28;20226;-83
2023/02/19 11:18:07;;;;;;;0.50;0.50;;;;;;;13.62;51.65;96167.59;5031349;28;20205;-83
2023/02/19 11:20:34;;;;;;;4.35;3.95;;;;;;;13.57;51.45;96162.16;5038184;28;20234;-83
2023/02/19 11:23:10;;;;;;;2.47;1.95;;;;;;;13.51;51.29;96173.22;5045782;28;20275;-82
2023/02/19 11:25:36;;;;;;;0.52;0.52;;;;;;;13.40;52.16;96171.91;5044439;28;20227;-83
2023/02/19 11:28:07;;;;;;;0.53;0.53;;;;;;;13.29;51.70;96169.75;5043403;28;20205;-82
2023/02/19 11:30:39;;;;;;;1.03;0.60;;;;;;;13.45;51.51;96164.41;5030274;28;20614;-83
2023/02/19 11:33:25;;;;;;;0.50;0.50;;;;;;;13.65;51.56;96172.41;5030700;28;20225;-82
2023/02/19 11:35:58;;;;;;;0.60;0.60;;;;;;;13.46;51.40;96166.03;5038514;28;20724;-82
2023/02/19 11:38:25;;;;;;;1.23;0.50;;;;;;;13.23;51.86;96179.03;5041908;28;20205;-82
2023/02/19 11:40:59;;;;;;;0.60;0.60;;;;;;;13.23;53.32;96183.41;5031520;28;20668;-83
2023/02/19 11:43:43;;;;;;;0.60;0.60;;;;;;;13.11;54.87;96183.00;5027515;28;20244;-82
2023/02/19 11:46:20;;;;;;;0.60;0.60;;;;;;;12.84;57.64;96186.19;5030268;28;20229;-82
2023/02/19 11:48:54;;;;;;;0.73;0.70;;;;;;;12.57;60.21;96190.91;5025821;28;20260;-82
2023/02/19 11:51:45;;;;;;;0.60;0.60;;;;;;;12.34;60.59;96198.66;5039404;28;20247;-83
2023/02/19 11:54:24;;;;;;;0.60;0.60;;;;;;;12.22;58.72;96186.34;5052190;28;20244;-83
2023/02/19 11:57:05;;;;;;;0.80;0.70;;;;;;;12.29;59.14;96189.84;5045278;28;20202;-82
2023/02/19 11:59:40;;;;;;;1.20;0.67;;;;;;;12.40;57.54;96202.34;5042859;28;20235;-83
2023/02/19 12:02:26;;;;;;;0.53;0.53;;;;;;;12.41;55.42;96198.78;5049458;28;20279;-82
2023/02/19 12:05:17;;;;;;;1.23;0.60;;;;;;;12.49;55.35;96187.63;5049047;28;20221;-81
2023/02/19 12:08:06;;;;;;;0.60;0.60;;;;;;;12.45;55.17;96193.13;5010355;28;20240;-83